createdAt,value
2016-06-22T00:00:35.165Z,68.13
2016-06-22T00:01:35.183Z,68.03
2016-06-22T00:02:35.827Z,68.32
2016-06-22T00:03:35.848Z,68.6
2016-06-22T00:04:35.274Z,68.22
2016-06-22T00:05:35.300Z,68.32
2016-06-22T00:06:35.325Z,68.22
2016-06-22T00:07:35.949Z,68.13
2016-06-22T00:08:35.979Z,68.13
2016-06-22T00:09:35.388Z,68.32
2016-06-22T00:10:35.414Z,68.13
2016-06-22T00:11:36.052Z,68.13
2016-06-22T00:12:36.075Z,68.03
2016-06-22T00:13:35.494Z,67.93
2016-06-22T00:14:35.517Z,67.83
2016-06-22T00:15:36.148Z,68.03
2016-06-22T00:16:35.564Z,68.03
2016-06-22T00:17:35.595Z,68.32
2016-06-22T00:18:36.231Z,68.03
2016-06-22T00:19:36.249Z,68.7
2016-06-22T00:20:36.277Z,68.13
2016-06-22T00:21:35.696Z,68.41
2016-06-22T00:22:35.713Z,68.8
2016-06-22T00:23:35.740Z,68.7
2016-06-22T00:24:36.379Z,68.22
2016-06-22T00:25:36.400Z,67.83
2016-06-22T00:26:35.817Z,68.7
2016-06-22T00:27:35.842Z,68.51
2016-06-22T00:28:35.865Z,68.8
2016-06-22T00:29:36.498Z,68.03
2016-06-22T00:30:36.539Z,68.7
2016-06-22T00:31:36.551Z,68.41
2016-06-22T00:32:35.975Z,68.41
2016-06-22T00:33:35.989Z,68.6
2016-06-22T00:34:36.018Z,68.7
2016-06-22T00:35:36.050Z,68.6
2016-06-22T00:36:36.078Z,68.6
2016-06-22T00:37:36.086Z,68.6
2016-06-22T00:38:36.124Z,68.7
2016-06-22T00:39:36.766Z,68.7
2016-06-22T00:40:36.778Z,68.6
2016-06-22T00:41:36.809Z,68.7
2016-06-22T00:42:36.222Z,68.22
2016-06-22T00:43:36.862Z,68.51
2016-06-22T00:44:36.898Z,68.51
2016-06-22T00:45:36.303Z,68.41
2016-06-22T00:46:36.951Z,68.51
2016-06-22T00:47:36.964Z,68.6
2016-06-22T00:48:36.988Z,68.41
2016-06-22T00:49:36.395Z,68.51
2016-06-22T00:50:36.415Z,68.51
2016-06-22T00:51:37.058Z,68.22
2016-06-22T00:52:36.464Z,69.09
2016-06-22T00:53:36.497Z,68.32
2016-06-22T00:54:36.520Z,68.41
2016-06-22T00:55:36.538Z,68.32
2016-06-22T00:56:36.585Z,68.8
2016-06-22T00:57:36.590Z,68.41
2016-06-22T00:58:36.622Z,68.32
2016-06-22T00:59:36.874Z,68.32
2016-06-22T01:00:37.292Z,68.51
2016-06-22T01:01:37.302Z,68.7
2016-06-22T01:02:36.717Z,68.8
2016-06-22T01:03:36.752Z,68.9
2016-06-22T01:04:36.768Z,68.41
2016-06-22T01:05:36.799Z,68.9
2016-06-22T01:06:36.814Z,69.09
2016-06-22T01:07:36.841Z,69.28
2016-06-22T01:08:37.478Z,68.8
2016-06-22T01:09:36.901Z,68.6
2016-06-22T01:10:36.911Z,68.8
2016-06-22T01:11:36.952Z,68.7
2016-06-22T01:12:36.971Z,68.6
2016-06-22T01:13:36.998Z,68.9
2016-06-22T01:14:37.033Z,68.9
2016-06-22T01:15:37.043Z,68.8
2016-06-22T01:16:37.673Z,68.9
2016-06-22T01:17:37.090Z,69.28
2016-06-22T01:18:37.735Z,68.9
2016-06-22T01:19:37.140Z,68.8
2016-06-22T01:20:37.175Z,68.9
2016-06-22T01:21:37.191Z,68.8
2016-06-22T01:22:37.215Z,69.09
2016-06-22T01:23:37.855Z,68.9
2016-06-22T01:24:37.878Z,68.99
2016-06-22T01:25:37.297Z,69.09
2016-06-22T01:26:37.327Z,68.9
2016-06-22T01:27:37.348Z,68.9
2016-06-22T01:28:37.362Z,69.09
2016-06-22T01:29:37.395Z,69.09
2016-06-22T01:30:37.413Z,68.9
2016-06-22T01:31:38.062Z,68.99
2016-06-22T01:32:37.461Z,68.9
2016-06-22T01:33:38.106Z,69.09
2016-06-22T01:34:37.511Z,69.09
2016-06-22T01:35:38.152Z,68.99
2016-06-22T01:36:37.566Z,69.09
2016-06-22T01:37:37.590Z,68.99
2016-06-22T01:38:37.620Z,68.8
2016-06-22T01:39:37.644Z,68.7
2016-06-22T01:40:38.276Z,68.9
2016-06-22T01:41:37.690Z,69.09
2016-06-22T01:42:37.721Z,68.8
2016-06-22T01:43:37.733Z,69.18
2016-06-22T01:44:37.759Z,69.09
2016-06-22T01:45:38.386Z,68.8
2016-06-22T01:46:38.432Z,69.09
2016-06-22T01:47:37.853Z,69.28
2016-06-22T01:48:37.879Z,68.8
2016-06-22T01:49:37.907Z,69.09
2016-06-22T01:50:37.926Z,69.09
2016-06-22T01:51:38.576Z,69.06
2016-06-22T01:52:38.586Z,68.8
2016-06-22T01:53:37.991Z,69.09
2016-06-22T01:54:38.630Z,69.09
2016-06-22T01:55:38.653Z,69.28
2016-06-22T01:56:38.674Z,68.86
2016-06-22T01:57:38.100Z,69.28
2016-06-22T01:58:38.106Z,68.6
2016-06-22T01:59:38.145Z,68.8
2016-06-22T02:00:38.162Z,69.28
2016-06-22T02:01:38.794Z,68.99
2016-06-22T02:02:38.833Z,69.06
2016-06-22T02:03:38.239Z,69.09
2016-06-22T02:04:38.877Z,68.8
2016-06-22T02:05:38.306Z,68.8
2016-06-22T02:06:38.319Z,68.99
2016-06-22T02:07:38.338Z,68.8
2016-06-22T02:08:38.365Z,68.6
2016-06-22T02:09:39.004Z,68.9
2016-06-22T02:10:38.414Z,68.9
2016-06-22T02:11:39.049Z,69.09
2016-06-22T02:12:38.461Z,68.9
2016-06-22T02:13:38.490Z,69.28
2016-06-22T02:14:39.122Z,68.8
2016-06-22T02:15:38.537Z,68.6
2016-06-22T02:16:38.567Z,68.6
2016-06-22T02:17:38.587Z,68.99
2016-06-22T02:18:38.621Z,68.9
2016-06-22T02:19:38.637Z,68.9
2016-06-22T02:20:38.665Z,68.99
2016-06-22T02:21:39.299Z,68.8
2016-06-22T02:22:39.327Z,68.9
2016-06-22T02:23:38.744Z,68.51
2016-06-22T02:24:38.814Z,68.8
2016-06-22T02:25:38.782Z,68.99
2016-06-22T02:26:38.821Z,68.6
2016-06-22T02:27:38.845Z,68.9
2016-06-22T02:28:39.468Z,68.7
2016-06-22T02:29:38.889Z,68.22
2016-06-22T02:30:39.520Z,68.41
2016-06-22T02:31:39.554Z,68.6
2016-06-22T02:32:38.964Z,68.6
2016-06-22T02:33:38.987Z,68.32
2016-06-22T02:34:39.620Z,68.99
2016-06-22T02:35:39.043Z,68.32
2016-06-22T02:36:39.070Z,68.7
2016-06-22T02:37:39.701Z,68.32
2016-06-22T02:38:39.108Z,68.22
2016-06-22T02:39:39.139Z,68.22
2016-06-22T02:40:39.165Z,68.41
2016-06-22T02:41:39.808Z,68.32
2016-06-22T02:42:39.826Z,68.32
2016-06-22T02:43:39.250Z,68.41
2016-06-22T02:44:39.875Z,68.6
2016-06-22T02:45:39.296Z,68.41
2016-06-22T02:46:39.306Z,68.41
2016-06-22T02:47:39.333Z,68.8
2016-06-22T02:48:39.371Z,68.8
2016-06-22T02:49:39.984Z,68.51
2016-06-22T02:50:40.023Z,68.41
2016-06-22T02:51:40.062Z,68.41
2016-06-22T02:52:40.081Z,68.7
2016-06-22T02:53:39.482Z,68.41
2016-06-22T02:54:39.517Z,68.6
2016-06-22T02:55:39.530Z,68.6
2016-06-22T02:56:39.555Z,68.32
2016-06-22T02:57:39.583Z,68.7
2016-06-22T02:58:40.225Z,68.6
2016-06-22T02:59:39.637Z,68.7
2016-06-22T03:00:40.275Z,68.41
2016-06-22T03:01:40.300Z,68.41
2016-06-22T03:02:39.705Z,68.41
2016-06-22T03:03:39.734Z,68.51
2016-06-22T03:04:40.374Z,68.41
2016-06-22T03:05:39.794Z,68.7
2016-06-22T03:06:39.803Z,68.41
2016-06-22T03:07:40.463Z,68.6
2016-06-22T03:08:40.496Z,68.8
2016-06-22T03:09:39.895Z,68.9
2016-06-22T03:10:39.903Z,68.6
2016-06-22T03:11:39.929Z,68.6
2016-06-22T03:12:39.956Z,68.32
2016-06-22T03:13:40.596Z,68.8
2016-06-22T03:14:40.007Z,68.7
2016-06-22T03:15:40.037Z,68.9
2016-06-22T03:16:40.667Z,68.7
2016-06-22T03:17:40.078Z,68.6
2016-06-22T03:18:40.717Z,68.8
2016-06-22T03:19:40.131Z,68.51
2016-06-22T03:20:40.156Z,68.6
2016-06-22T03:21:40.179Z,68.41
2016-06-22T03:22:40.203Z,68.51
2016-06-22T03:23:40.226Z,68.03
2016-06-22T03:24:40.310Z,68.22
2016-06-22T03:25:40.277Z,68.22
2016-06-22T03:26:40.956Z,67.93
2016-06-22T03:27:40.326Z,67.93
2016-06-22T03:28:40.969Z,68.03
2016-06-22T03:29:40.990Z,68.13
2016-06-22T03:30:40.408Z,68.03
2016-06-22T03:31:40.436Z,68.03
2016-06-22T03:32:41.071Z,68.22
2016-06-22T03:33:41.098Z,68.32
2016-06-22T03:34:40.505Z,67.93
2016-06-22T03:35:40.556Z,68.41
2016-06-22T03:36:40.559Z,68.32
2016-06-22T03:37:40.577Z,68.13
2016-06-22T03:38:41.223Z,68.13
2016-06-22T03:39:40.632Z,68.22
2016-06-22T03:40:41.267Z,68.13
2016-06-22T03:41:41.292Z,68.03
2016-06-22T03:42:40.713Z,68.22
2016-06-22T03:43:41.338Z,68.03
2016-06-22T03:44:41.361Z,68.13
2016-06-22T03:45:40.782Z,67.74
2016-06-22T03:46:40.807Z,68.51
2016-06-22T03:47:40.843Z,67.83
2016-06-22T03:48:41.468Z,68.32
2016-06-22T03:49:40.876Z,68.13
2016-06-22T03:50:41.515Z,68.41
2016-06-22T03:51:40.934Z,67.93
2016-06-22T03:52:40.952Z,68.03
2016-06-22T03:53:40.981Z,67.74
2016-06-22T03:54:41.618Z,67.93
2016-06-22T03:55:41.024Z,67.93
2016-06-22T03:56:41.051Z,68.13
2016-06-22T03:57:41.687Z,67.55
2016-06-22T03:58:41.098Z,67.65
2016-06-22T03:59:41.132Z,67.55
2016-06-22T04:00:41.156Z,67.55
2016-06-22T04:01:41.186Z,67.83
2016-06-22T04:02:41.816Z,67.55
2016-06-22T04:03:41.225Z,67.65
2016-06-22T04:04:41.870Z,68.13
2016-06-22T04:05:41.284Z,67.29
2016-06-22T04:06:41.304Z,67.39
2016-06-22T04:07:41.941Z,67.16
2016-06-22T04:08:41.353Z,66.91
2016-06-22T04:09:41.997Z,67.1
2016-06-22T04:10:41.400Z,67
2016-06-22T04:11:42.044Z,67.1
2016-06-22T04:12:41.460Z,67.19
2016-06-22T04:13:41.486Z,67.19
2016-06-22T04:14:42.126Z,67.29
2016-06-22T04:15:41.548Z,67.29
2016-06-22T04:16:42.168Z,67.29
2016-06-22T04:17:42.194Z,67
2016-06-22T04:18:41.602Z,67.19
2016-06-22T04:19:41.635Z,67.29
2016-06-22T04:20:42.269Z,67.29
2016-06-22T04:21:42.292Z,66.62
2016-06-22T04:22:41.717Z,66.81
2016-06-22T04:23:41.743Z,66.81
2016-06-22T04:24:41.804Z,67
2016-06-22T04:25:42.391Z,66.14
2016-06-22T04:26:42.416Z,66.04
2016-06-22T04:27:41.838Z,66.33
2016-06-22T04:28:41.854Z,66.24
2016-06-22T04:29:41.885Z,66.14
2016-06-22T04:30:41.911Z,66.33
2016-06-22T04:31:41.927Z,66.24
2016-06-22T04:32:41.960Z,66.42
2016-06-22T04:33:41.991Z,65.75
2016-06-22T04:34:42.619Z,65.85
2016-06-22T04:35:42.657Z,65.46
2016-06-22T04:36:42.046Z,65.85
2016-06-22T04:37:42.089Z,65.66
2016-06-22T04:38:42.723Z,65.75
2016-06-22T04:39:42.130Z,65.59
2016-06-22T04:40:42.161Z,65.2
2016-06-22T04:41:42.195Z,65.2
2016-06-22T04:42:42.214Z,65.4
2016-06-22T04:43:42.234Z,65.4
2016-06-22T04:44:42.267Z,65.3
2016-06-22T04:45:42.287Z,65.3
2016-06-22T04:46:42.919Z,65.3
2016-06-22T04:47:42.338Z,65.3
2016-06-22T04:48:42.358Z,65.2
2016-06-22T04:49:42.996Z,65.2
2016-06-22T04:50:43.039Z,65.4
2016-06-22T04:51:43.058Z,65.5
2016-06-22T04:52:42.460Z,65.5
2016-06-22T04:53:43.131Z,65.59
2016-06-22T04:54:42.518Z,65.2
2016-06-22T04:55:43.146Z,65.3
2016-06-22T04:56:42.565Z,65.11
2016-06-22T04:57:43.201Z,64.82
2016-06-22T04:58:43.234Z,64.92
2016-06-22T04:59:42.634Z,65.11
2016-06-22T05:00:43.286Z,64.53
2016-06-22T05:01:42.688Z,65.11
2016-06-22T05:02:42.714Z,64.43
2016-06-22T05:03:43.351Z,65.11
2016-06-22T05:04:42.766Z,65.01
2016-06-22T05:05:42.801Z,65.11
2016-06-22T05:06:42.821Z,65.11
2016-06-22T05:07:43.458Z,65.5
2016-06-22T05:08:42.869Z,65.2
2016-06-22T05:09:43.515Z,65.11
2016-06-22T05:10:42.925Z,64.92
2016-06-22T05:11:43.556Z,65.01
2016-06-22T05:12:42.971Z,64.73
2016-06-22T05:13:43.606Z,64.73
2016-06-22T05:14:43.025Z,64.73
2016-06-22T05:15:43.655Z,64.82
2016-06-22T05:16:43.686Z,65.01
2016-06-22T05:17:43.717Z,64.92
2016-06-22T05:18:43.750Z,65.01
2016-06-22T05:19:43.766Z,64.82
2016-06-22T05:20:43.181Z,64.73
2016-06-22T05:21:43.208Z,64.82
2016-06-22T05:22:43.219Z,65.2
2016-06-22T05:23:43.252Z,64.92
2016-06-22T05:24:43.328Z,64.63
2016-06-22T05:25:43.915Z,64.73
2016-06-22T05:26:43.340Z,64.53
2016-06-22T05:27:43.966Z,64.63
2016-06-22T05:28:43.385Z,64.63
2016-06-22T05:29:43.418Z,64.82
2016-06-22T05:30:43.433Z,64.82
2016-06-22T05:31:44.078Z,64.43
2016-06-22T05:32:43.487Z,64.73
2016-06-22T05:33:43.506Z,64.25
2016-06-22T05:34:44.155Z,64.82
2016-06-22T05:35:43.567Z,64.63
2016-06-22T05:36:44.194Z,64.43
2016-06-22T05:37:44.267Z,64.05
2016-06-22T05:38:43.648Z,64.53
2016-06-22T05:39:43.665Z,64.15
2016-06-22T05:40:43.702Z,64.34
2016-06-22T05:41:43.732Z,64.25
2016-06-22T05:42:43.746Z,64.25
2016-06-22T05:43:44.376Z,64.43
2016-06-22T05:44:44.414Z,64.34
2016-06-22T05:45:43.827Z,64.43
2016-06-22T05:46:44.470Z,64.34
2016-06-22T05:47:44.479Z,64.25
2016-06-22T05:48:44.504Z,64.28
2016-06-22T05:49:43.922Z,63.95
2016-06-22T05:50:43.954Z,63.98
2016-06-22T05:51:43.986Z,64.18
2016-06-22T05:52:44.006Z,64.08
2016-06-22T05:53:44.639Z,63.89
2016-06-22T05:54:44.062Z,63.89
2016-06-22T05:55:44.074Z,63.89
2016-06-22T05:56:44.111Z,64.08
2016-06-22T05:57:44.130Z,64.18
2016-06-22T05:58:44.769Z,64.28
2016-06-22T05:59:44.185Z,64.08
2016-06-22T06:00:44.816Z,63.5
2016-06-22T06:01:44.242Z,63.57
2016-06-22T06:02:44.275Z,63.6
2016-06-22T06:03:44.885Z,63.7
2016-06-22T06:04:44.319Z,63.7
2016-06-22T06:05:44.952Z,63.89
2016-06-22T06:06:44.968Z,63.79
2016-06-22T06:07:44.396Z,63.79
2016-06-22T06:08:45.029Z,63.89
2016-06-22T06:09:45.051Z,63.98
2016-06-22T06:10:45.083Z,63.79
2016-06-22T06:11:45.110Z,63.5
2016-06-22T06:12:45.137Z,63.6
2016-06-22T06:13:45.160Z,63.7
2016-06-22T06:14:45.195Z,63.6
2016-06-22T06:15:45.218Z,63.7
2016-06-22T06:16:45.240Z,63.31
2016-06-22T06:17:44.651Z,63.31
2016-06-22T06:18:44.686Z,63.5
2016-06-22T06:19:45.320Z,63.21
2016-06-22T06:20:45.345Z,63.31
2016-06-22T06:21:45.378Z,63.41
2016-06-22T06:22:44.785Z,63.5
2016-06-22T06:23:44.811Z,63.21
2016-06-22T06:24:45.458Z,63.12
2016-06-22T06:25:45.476Z,63.02
2016-06-22T06:26:45.495Z,63.02
2016-06-22T06:27:44.917Z,63.12
2016-06-22T06:28:45.564Z,63.12
2016-06-22T06:29:44.969Z,63.21
2016-06-22T06:30:45.604Z,63.12
2016-06-22T06:31:45.634Z,63.21
2016-06-22T06:32:45.651Z,63.02
2016-06-22T06:33:45.683Z,63.12
2016-06-22T06:34:45.102Z,62.73
2016-06-22T06:35:45.134Z,62.83
2016-06-22T06:36:45.154Z,62.54
2016-06-22T06:37:45.812Z,62.76
2016-06-22T06:38:45.837Z,62.54
2016-06-22T06:39:45.844Z,63.15
2016-06-22T06:40:45.866Z,62.66
2016-06-22T06:41:45.327Z,62.48
2016-06-22T06:42:45.311Z,62.57
2016-06-22T06:43:45.958Z,62.48
2016-06-22T06:44:45.981Z,62.57
2016-06-22T06:45:45.391Z,62.57
2016-06-22T06:46:45.417Z,62.48
2016-06-22T06:47:45.451Z,62.48
2016-06-22T06:48:46.098Z,61.8
2016-06-22T06:49:45.497Z,61.8
2016-06-22T06:50:45.527Z,61.61
2016-06-22T06:51:46.163Z,61.99
2016-06-22T06:52:45.598Z,61.8
2016-06-22T06:53:46.223Z,61.9
2016-06-22T06:54:46.242Z,61.8
2016-06-22T06:55:45.683Z,61.41
2016-06-22T06:56:46.305Z,61.9
2016-06-22T06:57:45.715Z,61.99
2016-06-22T06:58:45.747Z,61.71
2016-06-22T06:59:46.390Z,61.13
2016-06-22T07:00:45.794Z,61.03
2016-06-22T07:01:46.439Z,61.13
2016-06-22T07:02:46.462Z,61.22
2016-06-22T07:03:46.499Z,61.16
2016-06-22T07:04:45.903Z,61.35
2016-06-22T07:05:45.941Z,60.77
2016-06-22T07:06:46.568Z,60.86
2016-06-22T07:07:45.980Z,60.86
2016-06-22T07:08:46.015Z,60.68
2016-06-22T07:09:46.038Z,60.77
2016-06-22T07:10:46.682Z,60.86
2016-06-22T07:11:46.701Z,60.96
2016-06-22T07:12:46.114Z,60.86
2016-06-22T07:13:46.157Z,60.77
2016-06-22T07:14:46.784Z,60.86
2016-06-22T07:15:46.195Z,60.77
2016-06-22T07:16:46.871Z,60.28
2016-06-22T07:17:46.561Z,60.19
2016-06-22T07:18:46.886Z,60.48
2016-06-22T07:19:47.858Z,59.9
2016-06-22T07:20:46.398Z,59.9
2016-06-22T07:21:47.030Z,60.1
2016-06-22T07:22:47.002Z,59.55
2016-06-22T07:23:47.023Z,59.45
2016-06-22T07:24:46.648Z,60.03
2016-06-22T07:25:47.087Z,59.64
2016-06-22T07:26:46.497Z,59.25
2016-06-22T07:27:47.178Z,58.87
2016-06-22T07:28:47.160Z,58.97
2016-06-22T07:29:46.573Z,58.87
2016-06-22T07:30:47.210Z,58.97
2016-06-22T07:31:47.315Z,58.29
2016-06-22T07:32:46.960Z,58.58
2016-06-22T07:33:46.861Z,58.39
2016-06-22T07:34:47.949Z,58.1
2016-06-22T07:35:47.438Z,57.9
2016-06-22T07:36:46.766Z,58.19
2016-06-22T07:37:47.395Z,57.64
2016-06-22T07:38:47.426Z,57.45
2016-06-22T07:39:46.901Z,58.03
2016-06-22T07:40:46.865Z,57.16
2016-06-22T07:41:47.916Z,57.06
2016-06-22T07:42:47.528Z,57.06
2016-06-22T07:43:47.563Z,57.16
2016-06-22T07:44:46.973Z,57.06
2016-06-22T07:45:47.003Z,56.87
2016-06-22T07:46:47.033Z,56.51
2016-06-22T07:47:47.670Z,56.61
2016-06-22T07:48:47.702Z,56.03
2016-06-22T07:49:47.114Z,55.93
2016-06-22T07:50:47.144Z,55.93
2016-06-22T07:51:47.779Z,55.55
2016-06-22T07:52:47.209Z,55.65
2016-06-22T07:53:47.223Z,55.35
2016-06-22T07:54:47.866Z,55.83
2016-06-22T07:55:47.284Z,55.35
2016-06-22T07:56:47.307Z,55.29
2016-06-22T07:57:47.332Z,55.38
2016-06-22T07:58:47.359Z,55.67
2016-06-22T07:59:47.995Z,55.57
2016-06-22T08:00:47.414Z,55.67
2016-06-22T08:01:48.053Z,54.99
2016-06-22T08:02:48.088Z,55.19
2016-06-22T08:03:47.502Z,54.9
2016-06-22T08:04:47.522Z,54.8
2016-06-22T08:05:48.172Z,54.71
2016-06-22T08:06:47.587Z,54.8
2016-06-22T08:07:47.608Z,54.51
2016-06-22T08:08:47.643Z,54.51
2016-06-22T08:09:48.274Z,54.51
2016-06-22T08:10:47.690Z,54.51
2016-06-22T08:11:48.338Z,54.05
2016-06-22T08:12:48.355Z,54.05
2016-06-22T08:13:48.402Z,54.05
2016-06-22T08:14:48.411Z,53.47
2016-06-22T08:15:47.828Z,53.67
2016-06-22T08:16:47.846Z,53.77
2016-06-22T08:17:47.882Z,53.77
2016-06-22T08:18:48.518Z,53.57
2016-06-22T08:19:47.933Z,53.38
2016-06-22T08:20:48.576Z,53.57
2016-06-22T08:21:48.594Z,53.86
2016-06-22T08:22:48.010Z,53.67
2016-06-22T08:23:48.045Z,53.67
2016-06-22T08:24:48.692Z,53.77
2016-06-22T08:25:48.704Z,53.38
2016-06-22T08:26:48.735Z,53.19
2016-06-22T08:27:48.758Z,53.09
2016-06-22T08:28:48.786Z,53.38
2016-06-22T08:29:48.206Z,53.09
2016-06-22T08:30:48.241Z,53.38
2016-06-22T08:31:48.878Z,53.38
2016-06-22T08:32:48.897Z,53.28
2016-06-22T08:33:48.314Z,53.28
2016-06-22T08:34:48.354Z,53.38
2016-06-22T08:35:48.375Z,53.09
2016-06-22T08:36:48.399Z,52.82
2016-06-22T08:37:48.426Z,52.92
2016-06-22T08:38:49.062Z,52.99
2016-06-22T08:39:48.483Z,52.82
2016-06-22T08:40:48.514Z,52.82
2016-06-22T08:41:49.154Z,52.7
2016-06-22T08:42:49.179Z,52.73
2016-06-22T08:43:49.198Z,52.82
2016-06-22T08:44:48.623Z,52.99
2016-06-22T08:45:49.260Z,52.92
2016-06-22T08:46:48.667Z,52.24
2016-06-22T08:47:49.305Z,52.24
2016-06-22T08:48:49.347Z,52.44
2016-06-22T08:49:49.367Z,52.14
2016-06-22T08:50:49.399Z,52.34
2016-06-22T08:51:48.807Z,52.31
2016-06-22T08:52:49.456Z,52.24
2016-06-22T08:53:49.474Z,52.44
2016-06-22T08:54:48.892Z,52.53
2016-06-22T08:55:48.935Z,52.44
2016-06-22T08:56:49.555Z,52.24
2016-06-22T08:57:48.970Z,52.34
2016-06-22T08:58:49.001Z,52.34
2016-06-22T08:59:49.030Z,52.53
2016-06-22T09:00:49.681Z,52.44
2016-06-22T09:01:49.084Z,52.53
2016-06-22T09:02:49.124Z,52.34
2016-06-22T09:03:49.218Z,52.24
2016-06-22T09:04:49.166Z,51.95
2016-06-22T09:05:49.808Z,51.76
2016-06-22T09:06:49.212Z,51.66
2016-06-22T09:07:49.870Z,51.76
2016-06-22T09:08:49.281Z,51.86
2016-06-22T09:09:49.922Z,51.86
2016-06-22T09:10:49.952Z,51.86
2016-06-22T09:11:49.382Z,51.86
2016-06-22T09:12:50.011Z,51.66
2016-06-22T09:13:49.414Z,52.24
2016-06-22T09:14:49.450Z,51.95
2016-06-22T09:15:50.080Z,52.05
2016-06-22T09:16:50.121Z,51.76
2016-06-22T09:17:50.153Z,52.05
2016-06-22T09:18:50.175Z,51.76
2016-06-22T09:19:50.193Z,51.66
2016-06-22T09:20:50.217Z,51.86
2016-06-22T09:21:50.245Z,51.86
2016-06-22T09:22:50.286Z,51.56
2016-06-22T09:23:49.692Z,51.95
2016-06-22T09:24:50.334Z,51.56
2016-06-22T09:25:50.371Z,51.56
2016-06-22T09:26:50.391Z,51.37
2016-06-22T09:27:50.432Z,51.56
2016-06-22T09:28:49.834Z,51.18
2016-06-22T09:29:50.477Z,51.5
2016-06-22T09:30:50.511Z,51.4
2016-06-22T09:31:50.519Z,51.01
2016-06-22T09:32:49.943Z,50.92
2016-06-22T09:33:49.969Z,51.3
2016-06-22T09:34:49.997Z,51.59
2016-06-22T09:35:50.631Z,50.33
2016-06-22T09:36:50.669Z,50.43
2016-06-22T09:37:50.695Z,51.3
2016-06-22T09:38:50.103Z,51.01
2016-06-22T09:39:50.755Z,50.72
2016-06-22T09:40:50.171Z,50.92
2016-06-22T09:41:50.199Z,50.52
2016-06-22T09:42:50.830Z,51.01
2016-06-22T09:43:50.249Z,50.52
2016-06-22T09:44:50.878Z,50.62
2016-06-22T09:45:50.919Z,50.72
2016-06-22T09:46:50.949Z,50.72
2016-06-22T09:47:50.975Z,50.94
2016-06-22T09:48:50.396Z,50.92
2016-06-22T09:49:50.412Z,50.82
2016-06-22T09:50:51.064Z,51.1
2016-06-22T09:51:50.480Z,50.33
2016-06-22T09:52:51.115Z,50.33
2016-06-22T09:53:51.148Z,50.33
2016-06-22T09:54:50.558Z,50.45
2016-06-22T09:55:51.205Z,50.35
2016-06-22T09:56:51.219Z,50.35
2016-06-22T09:57:51.258Z,50.62
2016-06-22T09:58:50.667Z,49.97
2016-06-22T09:59:51.314Z,50.07
2016-06-22T10:00:50.727Z,49.87
2016-06-22T10:01:51.359Z,49.49
2016-06-22T10:02:51.403Z,49.77
2016-06-22T10:03:51.418Z,49.87
2016-06-22T10:04:50.832Z,49.87
2016-06-22T10:05:50.872Z,49.68
2016-06-22T10:06:51.490Z,49
2016-06-22T10:07:50.917Z,49.19
2016-06-22T10:08:50.946Z,49.19
2016-06-22T10:09:51.580Z,49.77
2016-06-22T10:10:51.002Z,49.68
2016-06-22T10:11:51.021Z,49.39
2016-06-22T10:12:51.669Z,49.39
2016-06-22T10:14:51.124Z,49.22
2016-06-22T10:15:51.141Z,49.68
2016-06-22T10:16:51.776Z,49.77
2016-06-22T10:17:51.805Z,49.29
2016-06-22T10:18:51.836Z,49.1
2016-06-22T10:19:51.903Z,49.02
2016-06-22T10:20:51.910Z,49.22
2016-06-22T10:21:51.298Z,49.22
2016-06-22T10:22:51.954Z,49.1
2016-06-22T10:23:51.969Z,49.19
2016-06-22T10:24:52.010Z,49.12
2016-06-22T10:25:52.034Z,49.8
2016-06-22T10:26:52.049Z,49.19
2016-06-22T10:27:52.081Z,49.39
2016-06-22T10:28:51.506Z,49.39
2016-06-22T10:29:51.531Z,49.68
2016-06-22T10:30:51.554Z,49.87
2016-06-22T10:31:52.189Z,49.39
2016-06-22T10:32:52.217Z,49.1
2016-06-22T10:33:52.255Z,49.39
2016-06-22T10:34:51.663Z,49.29
2016-06-22T10:35:52.325Z,49.39
2016-06-22T10:36:52.336Z,50.07
2016-06-22T10:37:51.747Z,49.77
2016-06-22T10:38:51.768Z,49.68
2016-06-22T10:39:52.420Z,50.16
2016-06-22T10:40:52.449Z,50.16
2016-06-22T10:41:51.866Z,50.45
2016-06-22T10:42:51.889Z,50.52
2016-06-22T10:43:51.906Z,50.24
2016-06-22T10:44:51.947Z,50.82
2016-06-22T10:45:51.971Z,50.82
2016-06-22T10:46:52.016Z,50.72
2016-06-22T10:47:52.023Z,50.52
2016-06-22T10:48:52.686Z,51.01
2016-06-22T10:49:52.698Z,50.33
2016-06-22T10:50:52.717Z,51.3
2016-06-22T10:51:52.143Z,50.62
2016-06-22T10:52:52.794Z,51.1
2016-06-22T10:53:52.808Z,51.2
2016-06-22T10:54:52.224Z,50.89
2016-06-22T10:55:52.863Z,51.66
2016-06-22T10:56:52.288Z,51.47
2016-06-22T10:57:52.923Z,51.66
2016-06-22T10:58:52.347Z,51.28
2016-06-22T10:59:52.976Z,51.76
2016-06-22T11:00:53.006Z,51.37
2016-06-22T11:01:53.023Z,51.28
2016-06-22T11:02:52.441Z,51.28
2016-06-22T11:03:52.470Z,51.47
2016-06-22T11:04:52.502Z,51.76
2016-06-22T11:05:52.528Z,51.47
2016-06-22T11:06:52.568Z,51.86
2016-06-22T11:07:53.195Z,51.95
2016-06-22T11:08:52.631Z,52.14
2016-06-22T11:09:52.642Z,51.86
2016-06-22T11:10:52.673Z,51.76
2016-06-22T11:11:52.693Z,51.95
2016-06-22T11:12:52.720Z,51.86
2016-06-22T11:13:53.369Z,51.86
2016-06-22T11:14:53.383Z,51.95
2016-06-22T11:15:53.421Z,52.05
2016-06-22T11:16:53.449Z,52.05
2016-06-22T11:17:53.470Z,52.44
2016-06-22T11:18:53.510Z,52.44
2016-06-22T11:19:53.534Z,52.05
2016-06-22T11:20:53.552Z,51.76
2016-06-22T11:21:52.987Z,52.24
2016-06-22T11:22:53.610Z,52.73
2016-06-22T11:23:53.641Z,52.34
2016-06-22T11:24:53.057Z,52.24
2016-06-22T11:25:53.079Z,51.95
2016-06-22T11:26:53.111Z,51.76
2016-06-22T11:27:53.146Z,51.66
2016-06-22T11:28:53.167Z,51.95
2016-06-22T11:29:53.807Z,51.86
2016-06-22T11:30:53.839Z,52.34
2016-06-22T11:31:53.251Z,52.44
2016-06-22T11:32:53.899Z,52.34
2016-06-22T11:33:53.308Z,52.44
2016-06-22T11:34:53.956Z,51.76
2016-06-22T11:35:53.987Z,51.56
2016-06-22T11:36:53.390Z,51.86
2016-06-22T11:37:53.415Z,51.76
2016-06-22T11:38:54.052Z,51.28
2016-06-22T11:39:53.482Z,51.28
2016-06-22T11:40:53.499Z,51.28
2016-06-22T11:41:53.535Z,51.37
2016-06-22T11:42:54.374Z,51.56
2016-06-22T11:43:53.578Z,51.28
2016-06-22T11:44:54.231Z,51.47
2016-06-22T11:45:54.256Z,51.37
2016-06-22T11:46:53.664Z,51.47
2016-06-22T11:47:53.699Z,51.47
2016-06-22T11:48:53.719Z,51.59
2016-06-22T11:49:54.397Z,51.18
2016-06-22T11:50:54.393Z,51.3
2016-06-22T11:51:53.814Z,50.72
2016-06-22T11:52:53.839Z,50.43
2016-06-22T11:53:54.470Z,50.52
2016-06-22T11:54:54.501Z,50.62
2016-06-22T11:55:53.916Z,50.72
2016-06-22T11:56:54.565Z,50.82
2016-06-22T11:57:54.590Z,50.72
2016-06-22T11:58:54.626Z,50.33
2016-06-22T11:59:54.652Z,50.45
2016-06-22T12:00:54.062Z,50.55
2016-06-22T12:01:54.704Z,50.16
2016-06-22T12:02:54.731Z,50.04
2016-06-22T12:03:54.784Z,50.43
2016-06-22T12:04:54.171Z,50.74
2016-06-22T12:05:54.202Z,50.35
2016-06-22T12:06:54.834Z,50.43
2016-06-22T12:07:54.249Z,50.16
2016-06-22T12:08:54.290Z,50.07
2016-06-22T12:09:54.313Z,49.95
2016-06-22T12:10:54.340Z,49.77
2016-06-22T12:11:54.984Z,49.87
2016-06-22T12:12:54.401Z,49.87
2016-06-22T12:13:55.048Z,49.58
2016-06-22T12:14:55.070Z,49.68
2016-06-22T12:15:54.493Z,49.58
2016-06-22T12:16:55.125Z,49.87
2016-06-22T12:17:54.547Z,49.58
2016-06-22T12:18:54.554Z,49.39
2016-06-22T12:19:55.206Z,49.29
2016-06-22T12:20:54.621Z,49
2016-06-22T12:21:55.256Z,49.19
2016-06-22T12:22:55.310Z,49.19
2016-06-22T12:23:55.330Z,49.39
2016-06-22T12:24:55.331Z,49.77
2016-06-22T12:25:55.382Z,49.77
2016-06-22T12:26:55.387Z,49.39
2016-06-22T12:27:55.438Z,48.9
2016-06-22T12:28:55.455Z,49
2016-06-22T12:29:54.872Z,49.29
2016-06-22T12:30:55.499Z,48.93
2016-06-22T12:31:54.939Z,48.93
2016-06-22T12:32:54.951Z,48.93
2016-06-22T12:33:55.594Z,48.93
2016-06-22T12:34:54.997Z,48.93
2016-06-22T12:35:55.648Z,49.32
2016-06-22T12:36:55.679Z,49.29
2016-06-22T12:37:55.708Z,48.93
2016-06-22T12:38:55.109Z,48.93
2016-06-22T12:39:55.159Z,49.02
2016-06-22T12:40:55.784Z,49.02
2016-06-22T12:41:55.829Z,48.83
2016-06-22T12:42:55.852Z,48.93
2016-06-22T12:43:55.885Z,48.54
2016-06-22T12:44:55.304Z,48.54
2016-06-22T12:45:55.933Z,48.74
2016-06-22T12:46:55.954Z,48.44
2016-06-22T12:47:55.365Z,48.64
2016-06-22T12:48:56.012Z,48.35
2016-06-22T12:49:56.090Z,48.54
2016-06-22T12:50:56.065Z,48.64
2016-06-22T12:51:56.091Z,48.44
2016-06-22T12:52:55.510Z,48.54
2016-06-22T12:53:55.541Z,48.83
2016-06-22T12:54:56.193Z,48.74
2016-06-22T12:55:56.222Z,48.74
2016-06-22T12:56:56.235Z,48.83
2016-06-22T12:57:55.655Z,49.12
2016-06-22T12:58:56.302Z,48.93
2016-06-22T12:59:56.313Z,49.32